Abbot, Maine
Current Conditions -  °F | °C
As of 12:35 PM on Wednesday 26 Nov 2014 (Local Time) from KWVL Reporting Station
Broken Clouds Broken Clouds  
Wind Chill: 32°   Ceiling: 6000
Heat Index: 37°   Visibility: 10mi
Dew Point: 21°   Wind: 7mph
Humidity: 52%   Direction: 20°NNE
Pressure: 30.15"   Gusts: NA
Location:  44.94°N, 69.7°W
Report Text: KWVL 261735Z 02006KT 10SM SCT046 BKN060 BKN065 03/M06 A3015 RMK AO1
Loading
Personal Weather Stations






























Interactive Weather Map New forecast layout! Learn more

10-Day Weather Forecast

Advertisements
Track Severe Weather on mobile